Pelham, NH (03076)

3:36 AM EST on February 09, 2016 (GMT -0500)
Independence Dr | | Change Station
CLOSE
Current Station
Personal Weather Station
Location: Pelham, NH
Elevation: 180 ft
Nearby Weather Stations

Elev 180 ft 42.74 °N, 71.34 °W | Updated 14 seconds ago

Overcast
Overcast
17.9 °F
Feels Like 18 °F
N
0.0
Wind Variable Wind from ENE
Gusts 1.0 mph

Today
High -- | Low -- °F
--% Chance of Precip.
Yesterday
High -- | Low -- °F
Precip. -- in
Pressure 30.41 in
Visibility 8.0 miles
Clouds Overcast 5000 ft
Windchill 18 °F
Dew Point 16 °F
Humidity 91%
Rainfall 0.00 in
Snow Depth Not available.
6:51 AM 5:08 PM
New Moon, 1% visible
METAR KASH 090755Z 33004KT 8SM OVC050 M07/M09 A2977 RMK AO2 SLP298 PWINO FZRANO RVRNO
Pressure 30.41 in
Visibility 8.0 miles
Clouds Overcast 5000 ft
Windchill 18 °F
Dew Point 16 °F
Humidity 91%
Rainfall 0.00 in
Snow Depth Not available.
6:51 AM 5:08 PM
New Moon, 1% visible
METAR KASH 090755Z 33004KT 8SM OVC050 M07/M09 A2977 RMK AO2 SLP298 PWINO FZRANO RVRNO

10-Day Weather Forecast

Almanac

Astronomy

Feb. 09, 2016 Rise Set
Actual Time
Civil Twilight
Nautical Twilight
Astronomical Twilight
Moon
Length of Visible Light
Length of Day
Tomorrow will be .
, % of the Moon is Illuminated

Today's Extremes

State Highs State Lows

Community

WunderPhotos

Upload Photos

1,891,571 photos uploaded!

WunderBlog® & News

Nearby

Air Quality

  Air Quality AQ Index Pollutant
Not available.

Snow Depth

Station Depth Elevation

Earthquake Activity

City Distance Mag. Time & Date
Minimum magnitude displayed is 2.5.

Coastal Water Temperatures

Place Temperature

Stations

Nearby Weather Stations

Station Location Temp. Windchill Dew Point Humidity Wind Precip. Elev Updated Type
                   

Watches & Warnings

There are currently no watches in effect.